Time;durP1;ratioP1;P1;durP2;ratioP2;P2;SDS_P1;SDS_P2;PMS_P1;PMS_P2;Temp;Humidity;BMP_temperature;BMP_pressure;BME280_temperature;BME280_humidity;BME280_pressure;Samples;Min_cycle;Max_cycle;Signal;HPM_P1;HPM_P2
2023/06/08 00:02:25;;;;;;;16.50;8.48;;;;;17.10;101272.00;;;;10374137;28;20200;-74
2023/06/08 00:07:27;;;;;;;16.00;8.50;;;;;17.00;101276.00;;;;10356918;28;20203;-72
2023/06/08 00:12:29;;;;;;;14.82;8.95;;;;;16.90;101268.00;;;;10379597;28;20255;-72
2023/06/08 00:17:32;;;;;;;16.50;9.45;;;;;16.80;101266.00;;;;10378900;28;20228;-72
2023/06/08 00:22:36;;;;;;;15.45;8.27;;;;;16.80;101264.00;;;;10376809;28;20203;-72
2023/06/08 00:27:39;;;;;;;20.55;9.55;;;;;16.70;101256.00;;;;10377570;28;20204;-71
2023/06/08 00:32:41;;;;;;;15.38;9.55;;;;;16.60;101247.00;;;;10377770;28;20298;-77
2023/06/08 00:37:43;;;;;;;16.63;9.20;;;;;16.50;101256.00;;;;10369402;28;20272;-79
2023/06/08 00:42:45;;;;;;;13.90;8.48;;;;;16.40;101248.00;;;;10377806;28;20218;-78
2023/06/08 00:47:48;;;;;;;15.83;9.27;;;;;16.40;101249.00;;;;10376911;28;20294;-79
2023/06/08 00:52:52;;;;;;;18.52;9.73;;;;;16.30;101241.00;;;;10378251;28;20318;-79
2023/06/08 00:57:54;;;;;;;17.17;9.45;;;;;16.20;101241.00;;;;10373935;28;20585;-78
2023/06/08 01:09:22;;;;;;;17.90;9.77;;;;;16.20;101234.00;;;;11025754;23;20342;-74
2023/06/08 01:14:35;;;;;;;18.80;9.83;;;;;16.10;101224.00;;;;10069930;28;20299;-74
2023/06/08 01:20:06;;;;;;;15.33;9.83;;;;;16.00;101225.00;;;;10122120;28;20206;-75
2023/06/08 01:25:10;;;;;;;17.37;8.87;;;;;15.90;101217.00;;;;10138531;28;21608;-74
2023/06/08 01:30:13;;;;;;;18.20;10.50;;;;;15.80;101220.00;;;;10134954;28;20224;-75
2023/06/08 01:35:15;;;;;;;16.87;10.07;;;;;15.70;101226.00;;;;10123059;28;20335;-75
2023/06/08 01:40:26;;;;;;;15.47;9.57;;;;;15.60;101218.00;;;;10141153;28;20715;-75
2023/06/08 01:45:32;;;;;;;16.97;9.60;;;;;15.50;101216.00;;;;10139458;28;20424;-75
2023/06/08 01:50:35;;;;;;;13.87;9.93;;;;;15.40;101210.00;;;;10138087;28;20201;-75
2023/06/08 01:55:38;;;;;;;20.53;9.70;;;;;15.30;101212.00;;;;10139763;28;20255;-75
2023/06/08 02:00:41;;;;;;;15.80;10.53;;;;;15.30;101212.00;;;;10145580;28;20244;-74
2023/06/08 02:05:43;;;;;;;20.97;10.53;;;;;15.20;101207.00;;;;10138985;28;21760;-74
2023/06/08 02:10:45;;;;;;;19.80;10.07;;;;;15.10;101206.00;;;;10153431;28;22393;-75
2023/06/08 02:15:47;;;;;;;22.40;10.80;;;;;15.10;101203.00;;;;10138967;28;20514;-75
2023/06/08 02:20:49;;;;;;;17.17;10.77;;;;;15.00;101203.00;;;;10153163;28;20217;-75
2023/06/08 02:25:51;;;;;;;20.73;10.17;;;;;15.00;101207.00;;;;10154447;28;20763;-74
2023/06/08 02:30:53;;;;;;;14.90;9.63;;;;;14.90;101208.00;;;;10155611;28;20471;-74
2023/06/08 02:35:55;;;;;;;16.17;10.10;;;;;14.80;101208.00;;;;10153852;28;20812;-74
2023/06/08 02:40:58;;;;;;;18.60;10.27;;;;;14.80;101207.00;;;;10152309;28;20205;-76
2023/06/08 02:46:00;;;;;;;14.43;9.97;;;;;14.70;101208.00;;;;10149912;28;20771;-75
2023/06/08 02:51:04;;;;;;;16.53;9.97;;;;;14.60;101207.00;;;;10117482;28;20236;-76
2023/06/08 02:56:06;;;;;;;19.27;10.27;;;;;14.50;101211.00;;;;10152869;28;21520;-75
2023/06/08 03:01:14;;;;;;;23.57;10.63;;;;;14.40;101217.00;;;;10153281;28;20228;-73
2023/06/08 03:06:33;;;;;;;19.13;11.17;;;;;14.40;101214.00;;;;10152244;28;20228;-76
2023/06/08 03:11:37;;;;;;;17.33;11.10;;;;;14.30;101219.00;;;;10160405;28;20524;-75
2023/06/08 03:16:43;;;;;;;17.40;10.63;;;;;14.30;101213.00;;;;10162489;28;20271;-74
2023/06/08 03:21:49;;;;;;;18.50;10.97;;;;;14.20;101217.00;;;;10157404;28;20206;-76
2023/06/08 03:26:53;;;;;;;26.53;11.80;;;;;14.20;101205.00;;;;10126324;28;20684;-76
2023/06/08 03:31:56;;;;;;;18.27;11.77;;;;;14.10;101215.00;;;;10144469;28;20936;-76
2023/06/08 03:37:01;;;;;;;22.20;11.40;;;;;14.10;101218.00;;;;10145321;28;20268;-75
2023/06/08 03:42:05;;;;;;;23.50;11.70;;;;;14.10;101222.00;;;;10141590;28;20539;-75
2023/06/08 03:47:12;;;;;;;21.20;11.77;;;;;14.10;101222.00;;;;10129198;28;20792;-76
2023/06/08 03:52:15;;;;;;;20.37;11.60;;;;;14.10;101216.00;;;;10143791;28;21154;-75
2023/06/08 03:57:19;;;;;;;16.77;11.17;;;;;14.20;101221.00;;;;10143179;28;20786;-76
2023/06/08 04:02:21;;;;;;;22.77;11.57;;;;;14.30;101215.00;;;;10145568;28;21233;-76
2023/06/08 04:07:24;;;;;;;15.40;10.90;;;;;14.40;101214.00;;;;10140836;28;20222;-75
2023/06/08 04:12:27;;;;;;;18.47;11.70;;;;;14.40;101214.00;;;;10143082;28;20713;-75
2023/06/08 04:17:29;;;;;;;21.13;12.50;;;;;14.50;101215.00;;;;10142218;28;20221;-75
2023/06/08 04:22:31;;;;;;;17.17;12.10;;;;;14.60;101216.00;;;;10144365;28;20213;-75
2023/06/08 04:27:34;;;;;;;15.10;11.00;;;;;14.60;101213.00;;;;10145437;28;20221;-76
2023/06/08 04:32:37;;;;;;;19.80;12.27;;;;;14.70;101215.00;;;;10139963;28;20229;-75
2023/06/08 04:37:41;;;;;;;19.03;10.73;;;;;14.80;101216.00;;;;10129281;28;20209;-75
2023/06/08 04:42:46;;;;;;;19.00;12.17;;;;;14.80;101220.00;;;;10126995;28;20201;-75
2023/06/08 04:47:48;;;;;;;18.83;11.70;;;;;14.90;101220.00;;;;10141428;28;20564;-76
2023/06/08 04:52:51;;;;;;;22.27;12.33;;;;;15.10;101222.00;;;;10141254;28;20231;-76
2023/06/08 04:57:53;;;;;;;25.33;11.73;;;;;15.30;101227.00;;;;10166074;28;21917;-76
2023/06/08 05:02:56;;;;;;;19.70;12.03;;;;;15.50;101217.00;;;;10144953;28;20288;-75
2023/06/08 05:07:58;;;;;;;22.77;12.30;;;;;15.70;101212.00;;;;10144161;28;20237;-75
2023/06/08 05:13:01;;;;;;;19.87;12.43;;;;;16.00;101214.00;;;;10168379;28;20264;-74
2023/06/08 05:18:03;;;;;;;17.17;12.30;;;;;16.30;101208.00;;;;10165289;28;20205;-75
2023/06/08 05:23:06;;;;;;;24.17;13.63;;;;;16.70;101208.00;;;;10163457;28;20213;-75
2023/06/08 05:28:08;;;;;;;19.40;12.48;;;;;17.00;101204.00;;;;10175304;28;20296;-75
2023/06/08 05:33:10;;;;;;;22.23;12.17;;;;;17.20;101208.00;;;;10162393;28;20225;-75
2023/06/08 05:38:12;;;;;;;20.63;12.15;;;;;17.60;101198.00;;;;10160941;28;20245;-75
2023/06/08 05:43:15;;;;;;;20.33;12.52;;;;;18.00;101203.00;;;;10161347;28;20206;-74
2023/06/08 05:48:16;;;;;;;18.25;11.85;;;;;18.30;101196.00;;;;10146244;28;20233;-75
2023/06/08 05:53:19;;;;;;;18.00;11.35;;;;;18.50;101201.00;;;;10162131;28;20344;-75
2023/06/08 05:58:23;;;;;;;20.05;11.65;;;;;18.80;101192.00;;;;10155985;28;20257;-75
2023/06/08 06:03:42;;;;;;;20.73;11.25;;;;;19.00;101202.00;;;;10158193;28;20209;-74
2023/06/08 06:08:44;;;;;;;15.63;11.57;;;;;19.30;101201.00;;;;10159980;28;20903;-75
2023/06/08 06:13:47;;;;;;;18.63;11.32;;;;;19.70;101207.00;;;;10162531;28;20895;-75
2023/06/08 06:18:49;;;;;;;17.70;12.05;;;;;19.90;101208.00;;;;10171795;28;20300;-74
2023/06/08 06:23:51;;;;;;;18.95;11.10;;;;;20.10;101201.00;;;;10169615;28;21054;-75
2023/06/08 06:28:53;;;;;;;17.52;11.75;;;;;20.40;101201.00;;;;10171155;28;20209;-74
2023/06/08 06:33:55;;;;;;;17.27;11.13;;;;;20.70;101195.00;;;;10186375;28;21115;-74
2023/06/08 06:38:57;;;;;;;17.88;11.32;;;;;21.00;101201.00;;;;10166123;28;20237;-75
2023/06/08 06:43:59;;;;;;;15.20;11.40;;;;;21.10;101201.00;;;;10157265;28;20972;-75
2023/06/08 06:49:01;;;;;;;22.77;12.18;;;;;21.50;101195.00;;;;10144539;28;20298;-74
2023/06/08 06:54:03;;;;;;;20.27;11.90;;;;;21.90;101192.00;;;;10137170;28;20233;-75
2023/06/08 06:59:05;;;;;;;17.55;11.45;;;;;22.10;101195.00;;;;10155252;28;20218;-75
2023/06/08 07:04:08;;;;;;;20.45;11.73;;;;;22.40;101198.00;;;;10156337;28;21546;-74
2023/06/08 07:09:11;;;;;;;20.13;11.32;;;;;22.60;101186.00;;;;10159741;28;20229;-80
2023/06/08 07:14:15;;;;;;;18.40;11.45;;;;;22.90;101192.00;;;;10143149;28;21842;-81
2023/06/08 07:19:17;;;;;;;19.15;11.90;;;;;23.10;101190.00;;;;10159622;28;20323;-78
2023/06/08 07:24:19;;;;;;;22.55;12.55;;;;;23.30;101186.00;;;;10165118;28;21703;-81
2023/06/08 07:29:41;;;;;;;21.52;11.23;;;;;23.80;101179.00;;;;10165804;28;20307;-79
2023/06/08 07:34:43;;;;;;;16.73;11.32;;;;;24.10;101185.00;;;;10164259;28;20366;-78
2023/06/08 07:39:46;;;;;;;20.67;12.13;;;;;24.30;101181.00;;;;10166271;28;21799;-80
2023/06/08 07:44:49;;;;;;;17.23;11.00;;;;;24.60;101179.00;;;;10167446;28;20245;-79
2023/06/08 07:49:52;;;;;;;19.70;11.77;;;;;24.80;101178.00;;;;10165103;28;20210;-80
2023/06/08 07:54:54;;;;;;;20.95;12.43;;;;;25.20;101176.00;;;;10164117;28;20277;-81
2023/06/08 07:59:56;;;;;;;21.48;11.70;;;;;25.70;101180.00;;;;10171694;28;20353;-81
2023/06/08 08:04:58;;;;;;;15.55;11.63;;;;;25.90;101168.00;;;;10172486;28;20400;-80
2023/06/08 08:10:01;;;;;;;20.02;12.00;;;;;26.40;101166.00;;;;10173964;28;20249;-81
2023/06/08 08:15:03;;;;;;;17.10;12.05;;;;;26.60;101160.00;;;;10167610;28;20313;-81
2023/06/08 08:20:07;;;;;;;19.75;12.43;;;;;26.90;101159.00;;;;10177914;28;21948;-78
2023/06/08 08:25:11;;;;;;;20.10;12.40;;;;;27.10;101160.00;;;;10166767;28;20309;-78
2023/06/08 08:30:13;;;;;;;18.42;12.75;;;;;27.50;101155.00;;;;10199402;28;20237;-77
2023/06/08 08:35:16;;;;;;;22.75;12.68;;;;;27.50;101156.00;;;;10193590;28;20240;-78
2023/06/08 08:40:18;;;;;;;16.58;12.45;;;;;27.70;101164.00;;;;10177309;28;20210;-79
2023/06/08 08:45:23;;;;;;;18.08;12.20;;;;;27.80;101146.00;;;;10171120;28;20213;-80
2023/06/08 08:50:27;;;;;;;19.67;12.75;;;;;28.20;101151.00;;;;10178091;28;20965;-78
2023/06/08 08:55:29;;;;;;;15.25;11.73;;;;;28.80;101141.00;;;;10174150;28;20588;-80
2023/06/08 09:00:35;;;;;;;16.83;12.27;;;;;28.30;101140.00;;;;10177916;28;20217;-80
2023/06/08 09:05:37;;;;;;;17.98;11.93;;;;;28.30;101142.00;;;;10174216;28;20210;-78
2023/06/08 09:10:39;;;;;;;15.55;12.10;;;;;29.20;101136.00;;;;10155892;28;20220;-78
2023/06/08 09:15:42;;;;;;;17.30;12.30;;;;;29.70;101139.00;;;;10167580;28;20232;-78
2023/06/08 09:20:45;;;;;;;18.80;13.43;;;;;29.60;101144.00;;;;10177199;28;20229;-78
2023/06/08 09:25:48;;;;;;;21.35;13.10;;;;;29.50;101140.00;;;;10175646;28;20237;-75
2023/06/08 09:30:50;;;;;;;17.67;13.82;;;;;29.60;101138.00;;;;10163291;28;20210;-73
2023/06/08 09:35:58;;;;;;;17.77;12.05;;;;;30.00;101132.00;;;;10148872;28;20237;-75
2023/06/08 09:41:16;;;;;;;17.65;12.65;;;;;29.90;101135.00;;;;10161555;28;20443;-76
2023/06/08 09:46:34;;;;;;;15.63;12.77;;;;;30.10;101127.00;;;;10162808;28;20209;-76
2023/06/08 09:51:37;;;;;;;15.73;12.85;;;;;30.30;101123.00;;;;10158390;28;20201;-74
2023/06/08 09:56:43;;;;;;;14.55;11.93;;;;;30.80;101124.00;;;;10157477;28;20349;-73
2023/06/08 10:01:52;;;;;;;14.30;12.60;;;;;31.00;101125.00;;;;10159180;28;22087;-75
2023/06/08 10:07:03;;;;;;;16.80;13.13;;;;;31.10;101122.00;;;;10156781;28;20209;-77
2023/06/08 10:12:06;;;;;;;15.18;11.85;;;;;31.40;101123.00;;;;10155297;28;20236;-75
2023/06/08 10:17:08;;;;;;;16.67;12.48;;;;;31.70;101113.00;;;;10153957;28;20214;-77
2023/06/08 10:22:10;;;;;;;16.60;12.57;;;;;31.70;101105.00;;;;10153992;28;20205;-77
2023/06/08 10:27:25;;;;;;;13.20;10.25;;;;;32.00;101104.00;;;;10152573;28;20240;-76
2023/06/08 10:32:42;;;;;;;14.55;10.60;;;;;32.20;101093.00;;;;10153825;28;20229;-75
2023/06/08 10:37:45;;;;;;;14.85;11.35;;;;;32.30;101080.00;;;;10145185;28;20209;-76
2023/06/08 10:42:55;;;;;;;16.30;11.63;;;;;32.30;101074.00;;;;10130395;28;20213;-76
2023/06/08 10:48:18;;;;;;;14.20;10.55;;;;;32.60;101071.00;;;;10158930;28;20304;-76
2023/06/08 10:53:55;;;;;;;14.82;11.00;;;;;32.70;101064.00;;;;10157765;28;20411;-76
2023/06/08 10:58:57;;;;;;;12.27;10.68;;;;;32.90;101067.00;;;;10146872;28;20456;-75
2023/06/08 11:04:00;;;;;;;12.25;10.23;;;;;33.30;101056.00;;;;10149478;28;20220;-76
2023/06/08 11:09:09;;;;;;;12.32;10.57;;;;;33.40;101054.00;;;;10153222;28;20233;-76
2023/06/08 11:14:11;;;;;;;14.02;9.38;;;;;33.60;101053.00;;;;10155271;28;21856;-77
2023/06/08 11:19:16;;;;;;;16.50;10.55;;;;;33.80;101060.00;;;;10154714;28;20302;-77
2023/06/08 11:24:18;;;;;;;11.02;8.82;;;;;34.20;101046.00;;;;10151051;28;20653;-77
2023/06/08 11:29:20;;;;;;;13.82;9.20;;;;;33.90;101044.00;;;;10147922;28;20217;-77
2023/06/08 11:34:23;;;;;;;11.13;8.00;;;;;34.30;101034.00;;;;10152655;28;20342;-76
2023/06/08 11:39:29;;;;;;;13.20;8.00;;;;;34.30;101021.00;;;;10157883;28;20206;-77
2023/06/08 11:44:31;;;;;;;12.68;8.25;;;;;34.40;101020.00;;;;10144250;28;20505;-75
2023/06/08 11:49:54;;;;;;;9.27;7.20;;;;;34.90;101011.00;;;;10162975;28;20313;-77
2023/06/08 11:55:01;;;;;;;10.32;7.32;;;;;34.50;101011.00;;;;10162749;28;20209;-76
2023/06/08 12:00:09;;;;;;;10.27;7.45;;;;;34.60;101004.00;;;;10163649;28;20210;-77
2023/06/08 12:05:16;;;;;;;12.00;7.05;;;;;34.90;101001.00;;;;10156985;28;20236;-77
2023/06/08 12:10:18;;;;;;;9.48;7.07;;;;;35.10;100994.00;;;;10159721;28;20201;-77
2023/06/08 12:15:20;;;;;;;12.43;7.85;;;;;34.80;100983.00;;;;10164074;28;20308;-76
2023/06/08 12:20:22;;;;;;;11.95;7.95;;;;;34.90;100985.00;;;;10165509;28;21966;-77
2023/06/08 12:25:24;;;;;;;11.13;7.07;;;;;34.70;100978.00;;;;10162424;28;21936;-77
2023/06/08 12:30:27;;;;;;;10.88;6.90;;;;;34.80;100971.00;;;;10168101;28;20256;-76
2023/06/08 12:35:28;;;;;;;12.75;7.10;;;;;34.50;100959.00;;;;10167238;28;20222;-77
2023/06/08 12:40:31;;;;;;;9.75;7.30;;;;;34.60;100956.00;;;;10158277;28;20209;-77
2023/06/08 12:45:35;;;;;;;11.18;7.03;;;;;34.60;100954.00;;;;10164424;28;20954;-77
2023/06/08 12:50:38;;;;;;;10.57;7.05;;;;;34.80;100954.00;;;;10167427;28;20288;-76
2023/06/08 12:55:41;;;;;;;13.00;7.32;;;;;34.60;100945.00;;;;10168121;28;20209;-75
2023/06/08 13:00:43;;;;;;;10.07;6.55;;;;;34.50;100930.00;;;;10166115;28;20296;-75
2023/06/08 13:05:45;;;;;;;10.30;6.57;;;;;34.70;100928.00;;;;10145678;28;20213;-77
2023/06/08 13:10:47;;;;;;;10.45;6.20;;;;;34.70;100923.00;;;;10155423;28;20214;-75
2023/06/08 13:15:53;;;;;;;9.10;5.82;;;;;34.50;100925.00;;;;10161958;28;20210;-76
2023/06/08 13:20:56;;;;;;;7.00;5.10;;;;;34.50;100912.00;;;;10162741;28;20348;-75
2023/06/08 13:25:59;;;;;;;8.38;5.35;;;;;35.00;100905.00;;;;10165292;28;20267;-76
2023/06/08 13:31:02;;;;;;;8.93;6.03;;;;;34.90;100911.00;;;;10169180;28;20240;-76
2023/06/08 13:36:04;;;;;;;7.22;4.85;;;;;34.80;100900.00;;;;10170142;28;20205;-76
2023/06/08 13:41:07;;;;;;;5.63;4.28;;;;;34.00;100903.00;;;;10167708;28;21950;-74
2023/06/08 13:46:09;;;;;;;5.10;4.45;;;;;34.10;100886.00;;;;10169548;28;20252;-75
2023/06/08 13:51:11;;;;;;;7.28;4.68;;;;;34.60;100885.00;;;;10169244;28;21283;-78
2023/06/08 13:56:14;;;;;;;6.60;4.10;;;;;34.30;100870.00;;;;10167199;28;20220;-76
2023/06/08 14:01:16;;;;;;;5.60;3.78;;;;;34.50;100866.00;;;;10167863;28;20259;-74
2023/06/08 14:06:18;;;;;;;7.43;4.45;;;;;34.50;100859.00;;;;10159896;28;20938;-76
2023/06/08 14:11:21;;;;;;;5.07;4.18;;;;;34.30;100855.00;;;;10161440;28;20245;-75
2023/06/08 14:16:25;;;;;;;4.40;3.67;;;;;34.50;100857.00;;;;10167001;28;20213;-76
2023/06/08 14:21:27;;;;;;;4.18;3.72;;;;;32.20;100850.00;;;;10166597;28;20424;-75
2023/06/08 14:26:29;;;;;;;5.72;4.47;;;;;32.90;100838.00;;;;10168116;28;20244;-76
2023/06/08 14:31:32;;;;;;;5.72;3.65;;;;;33.20;100835.00;;;;10165889;28;20233;-74
2023/06/08 14:36:34;;;;;;;5.97;3.55;;;;;33.50;100817.00;;;;10166844;28;20244;-75
2023/06/08 14:41:36;;;;;;;8.82;3.60;;;;;33.90;100825.00;;;;10162068;28;20297;-75
2023/06/08 14:46:38;;;;;;;4.40;3.10;;;;;34.40;100817.00;;;;10154848;28;20812;-77
2023/06/08 14:51:40;;;;;;;6.70;3.95;;;;;34.90;100813.00;;;;10152745;28;20225;-77
2023/06/08 14:56:42;;;;;;;4.90;3.55;;;;;36.00;100804.00;;;;10148544;28;20742;-75
2023/06/08 15:01:44;;;;;;;6.25;3.33;;;;;36.50;100808.00;;;;10153714;28;20224;-75
2023/06/08 15:06:47;;;;;;;3.67;3.38;;;;;37.30;100800.00;;;;10156121;28;20897;-77
2023/06/08 15:11:49;;;;;;;7.38;3.28;;;;;38.00;100803.00;;;;10159860;28;20253;-76
2023/06/08 15:16:51;;;;;;;4.93;3.72;;;;;37.90;100805.00;;;;10162959;28;20239;-81
2023/06/08 15:21:53;;;;;;;5.65;4.13;;;;;38.80;100803.00;;;;10157119;28;20302;-82
2023/06/08 15:26:55;;;;;;;5.03;4.10;;;;;39.10;100802.00;;;;10176072;28;20374;-81
2023/06/08 15:31:57;;;;;;;3.72;3.42;;;;;37.30;100814.00;;;;10178378;28;20993;-81
2023/06/08 15:37:01;;;;;;;7.30;4.40;;;;;33.40;100815.00;;;;10176154;28;20217;-80
2023/06/08 15:42:03;;;;;;;7.78;4.70;;;;;32.80;100811.00;;;;10177788;28;20337;-79
2023/06/08 15:47:08;;;;;;;8.73;4.50;;;;;33.00;100801.00;;;;10169842;28;20229;-80
2023/06/08 15:52:10;;;;;;;6.72;5.20;;;;;32.20;100801.00;;;;10168530;28;21785;-80
2023/06/08 15:57:16;;;;;;;7.45;4.70;;;;;31.50;100800.00;;;;10175184;28;20205;-81
2023/06/08 16:02:18;;;;;;;6.38;5.65;;;;;30.20;100797.00;;;;10169065;28;20216;-82
2023/06/08 16:07:20;;;;;;;7.35;5.60;;;;;30.00;100778.00;;;;10165732;28;20723;-81
2023/06/08 16:12:22;;;;;;;7.53;6.20;;;;;29.80;100774.00;;;;10167879;28;21601;-80
2023/06/08 16:17:24;;;;;;;9.75;5.47;;;;;29.70;100764.00;;;;10167491;28;20217;-81
2023/06/08 16:22:26;;;;;;;6.85;6.18;;;;;29.50;100759.00;;;;10170351;28;21681;-82
2023/06/08 16:27:28;;;;;;;7.72;5.68;;;;;29.20;100755.00;;;;10175402;28;21867;-75
2023/06/08 16:32:30;;;;;;;8.35;7.00;;;;;29.10;100749.00;;;;10170866;28;20222;-76
2023/06/08 16:37:33;;;;;;;7.03;6.32;;;;;28.90;100750.00;;;;10172756;28;20295;-77
2023/06/08 16:42:36;;;;;;;7.45;5.90;;;;;28.80;100735.00;;;;10156168;28;20260;-76
2023/06/08 16:47:39;;;;;;;7.45;6.50;;;;;28.70;100742.00;;;;10157835;28;20210;-75
2023/06/08 16:52:41;;;;;;;7.00;6.30;;;;;28.70;100734.00;;;;10157273;28;20240;-76
2023/06/08 16:57:43;;;;;;;10.38;5.78;;;;;28.60;100730.00;;;;10170886;28;20953;-76
2023/06/08 17:02:46;;;;;;;6.65;5.78;;;;;28.60;100732.00;;;;10156412;28;20213;-75
2023/06/08 17:07:48;;;;;;;9.43;6.38;;;;;28.70;100724.00;;;;10155713;28;20237;-75
2023/06/08 17:12:50;;;;;;;9.98;6.53;;;;;28.50;100734.00;;;;10154497;28;20237;-77
2023/06/08 17:17:52;;;;;;;8.30;6.47;;;;;28.30;100725.00;;;;10141689;28;20244;-76
2023/06/08 17:22:54;;;;;;;9.15;6.55;;;;;28.20;100725.00;;;;10141887;28;20213;-76
2023/06/08 17:27:56;;;;;;;7.35;6.22;;;;;28.00;100720.00;;;;10140383;28;20229;-76
2023/06/08 17:32:59;;;;;;;10.50;6.70;;;;;27.90;100730.00;;;;10140805;28;20229;-76
2023/06/08 17:38:02;;;;;;;11.10;6.32;;;;;27.90;100734.00;;;;10139942;28;20214;-76
2023/06/08 17:43:04;;;;;;;8.75;7.43;;;;;27.80;100731.00;;;;10139758;28;20264;-75
2023/06/08 17:48:06;;;;;;;9.35;6.72;;;;;27.60;100733.00;;;;10140482;28;20228;-76
2023/06/08 17:53:08;;;;;;;7.28;6.35;;;;;27.40;100735.00;;;;10139704;28;20336;-78
2023/06/08 17:58:10;;;;;;;8.57;6.25;;;;;27.30;100735.00;;;;10136700;28;20748;-75
2023/06/08 18:03:13;;;;;;;7.57;6.40;;;;;27.10;100748.00;;;;10140070;28;20368;-76
2023/06/08 18:08:16;;;;;;;10.88;6.50;;;;;27.00;100753.00;;;;10140578;28;20312;-75
2023/06/08 18:13:18;;;;;;;8.07;6.40;;;;;26.80;100762.00;;;;10121456;28;20719;-76
2023/06/08 18:18:20;;;;;;;8.13;6.90;;;;;26.70;100743.00;;;;10137432;28;20221;-77
2023/06/08 18:23:23;;;;;;;7.18;6.47;;;;;26.60;100748.00;;;;10122823;28;20348;-75
2023/06/08 18:28:25;;;;;;;11.30;7.30;;;;;26.50;100743.00;;;;10138419;28;20320;-76
2023/06/08 18:33:27;;;;;;;12.32;7.03;;;;;26.40;100749.00;;;;10138072;28;20925;-75
2023/06/08 18:38:29;;;;;;;11.45;6.80;;;;;26.30;100747.00;;;;10137438;28;20773;-76
2023/06/08 18:43:31;;;;;;;10.40;7.30;;;;;26.20;100752.00;;;;10141023;28;20221;-77
2023/06/08 18:48:33;;;;;;;7.65;6.88;;;;;26.00;100766.00;;;;10140041;28;20221;-76
2023/06/08 18:53:35;;;;;;;7.78;6.50;;;;;25.90;100756.00;;;;10141448;28;20245;-76
2023/06/08 18:58:37;;;;;;;7.15;6.55;;;;;25.70;100774.00;;;;10145830;28;21511;-77
2023/06/08 19:03:39;;;;;;;9.25;6.28;;;;;25.60;100774.00;;;;10145455;28;20252;-77
2023/06/08 19:08:41;;;;;;;9.82;7.18;;;;;25.50;100769.00;;;;10146777;28;20308;-77
2023/06/08 19:13:44;;;;;;;8.82;7.30;;;;;25.40;100771.00;;;;10143474;28;20354;-78
2023/06/08 19:18:48;;;;;;;10.65;6.68;;;;;25.20;100778.00;;;;10145352;28;21663;-77
2023/06/08 19:23:50;;;;;;;9.40;7.38;;;;;25.00;100781.00;;;;10144304;28;20225;-77
2023/06/08 19:28:52;;;;;;;9.13;6.88;;;;;24.80;100789.00;;;;10143039;28;20217;-77
2023/06/08 19:33:56;;;;;;;10.60;6.97;;;;;24.50;100786.00;;;;10140403;28;20217;-78
2023/06/08 19:38:58;;;;;;;7.35;6.70;;;;;24.30;100796.00;;;;10156636;28;20244;-76
2023/06/08 19:44:00;;;;;;;9.77;7.97;;;;;24.00;100797.00;;;;10141610;28;21273;-76
2023/06/08 19:49:02;;;;;;;8.32;7.50;;;;;23.80;100798.00;;;;10138919;28;20216;-76
2023/06/08 19:54:05;;;;;;;9.65;7.72;;;;;23.60;100802.00;;;;10149684;28;20233;-77
2023/06/08 19:59:11;;;;;;;8.63;7.47;;;;;23.30;100805.00;;;;10148450;28;20221;-76
2023/06/08 20:04:14;;;;;;;13.77;7.70;;;;;23.10;100805.00;;;;10145404;28;20225;-77
2023/06/08 20:09:22;;;;;;;8.65;7.57;;;;;23.00;100808.00;;;;10143514;28;20213;-77
2023/06/08 20:14:24;;;;;;;10.27;7.40;;;;;22.80;100807.00;;;;10146826;28;20210;-75
2023/06/08 20:19:27;;;;;;;12.88;8.45;;;;;22.60;100803.00;;;;10127073;28;20577;-76
2023/06/08 20:24:29;;;;;;;11.43;8.68;;;;;22.50;100809.00;;;;10141753;28;20687;-77
2023/06/08 20:29:31;;;;;;;9.52;8.50;;;;;22.40;100802.00;;;;10141520;28;20328;-76
2023/06/08 20:34:33;;;;;;;10.95;8.43;;;;;22.30;100812.00;;;;10141853;28;20228;-76
2023/06/08 20:39:35;;;;;;;9.95;8.20;;;;;22.20;100811.00;;;;10142403;28;21583;-76
2023/06/08 20:44:37;;;;;;;10.43;8.05;;;;;22.10;100815.00;;;;10108978;28;20964;-77
2023/06/08 20:49:39;;;;;;;10.23;8.00;;;;;21.90;100823.00;;;;10140733;28;21323;-76
2023/06/08 20:54:41;;;;;;;10.25;8.07;;;;;21.80;100826.00;;;;10142110;28;20466;-76
2023/06/08 20:59:43;;;;;;;8.85;7.85;;;;;21.80;100820.00;;;;10157298;28;21723;-75
2023/06/08 21:04:47;;;;;;;11.73;7.75;;;;;21.70;100825.00;;;;10120416;28;21459;-76
2023/06/08 21:09:49;;;;;;;10.60;7.50;;;;;21.60;100833.00;;;;10138960;28;20362;-75
2023/06/08 21:14:51;;;;;;;10.02;8.27;;;;;21.50;100831.00;;;;10142935;28;20697;-76
2023/06/08 21:19:54;;;;;;;8.75;7.35;;;;;21.50;100835.00;;;;10140336;28;20228;-76
2023/06/08 21:24:56;;;;;;;11.55;8.32;;;;;21.40;100836.00;;;;10141445;28;20542;-77
2023/06/08 21:29:57;;;;;;;14.05;9.15;;;;;21.30;100835.00;;;;10140851;28;20447;-75
2023/06/08 21:35:00;;;;;;;11.57;8.18;;;;;21.20;100830.00;;;;10140077;28;20256;-75
2023/06/08 21:40:07;;;;;;;10.50;7.97;;;;;21.10;100827.00;;;;10139444;28;21417;-75
2023/06/08 21:45:09;;;;;;;13.43;8.68;;;;;21.00;100824.00;;;;10140683;28;20673;-75
2023/06/08 21:50:13;;;;;;;11.80;8.50;;;;;20.90;100822.00;;;;10141103;28;20205;-76
2023/06/08 21:55:16;;;;;;;10.02;8.23;;;;;20.80;100833.00;;;;10142156;28;20228;-75
2023/06/08 22:00:18;;;;;;;9.07;7.43;;;;;20.70;100844.00;;;;10137042;28;21477;-75
2023/06/08 22:05:20;;;;;;;9.10;8.18;;;;;20.60;100835.00;;;;10138928;28;21521;-74
2023/06/08 22:10:22;;;;;;;11.23;7.97;;;;;20.50;100839.00;;;;10140267;28;20217;-75
2023/06/08 22:15:24;;;;;;;12.75;8.10;;;;;20.40;100833.00;;;;10140704;28;20226;-74
2023/06/08 22:20:33;;;;;;;15.73;8.75;;;;;20.30;100826.00;;;;10144026;28;20825;-77
2023/06/08 22:25:39;;;;;;;12.93;8.88;;;;;20.30;100834.00;;;;10127849;28;20214;-77
2023/06/08 22:30:47;;;;;;;10.63;9.18;;;;;20.30;100837.00;;;;10142485;28;20677;-77
2023/06/08 22:35:50;;;;;;;12.82;8.93;;;;;20.30;100846.00;;;;10141652;28;20719;-78
2023/06/08 22:40:53;;;;;;;10.48;8.05;;;;;20.20;100838.00;;;;10143347;28;20224;-76
2023/06/08 22:45:55;;;;;;;11.80;8.85;;;;;20.10;100839.00;;;;10142801;28;20205;-76
2023/06/08 22:50:57;;;;;;;13.35;8.27;;;;;20.00;100844.00;;;;10142097;28;20309;-76
2023/06/08 22:55:59;;;;;;;9.65;8.27;;;;;19.90;100852.00;;;;10142331;28;20993;-77
2023/06/08 23:01:02;;;;;;;13.57;8.88;;;;;19.80;100847.00;;;;10143985;28;20213;-77
2023/06/08 23:06:05;;;;;;;14.52;8.30;;;;;19.80;100845.00;;;;10142309;28;20249;-77
2023/06/08 23:11:07;;;;;;;13.43;8.35;;;;;19.70;100839.00;;;;10138080;28;21591;-76
2023/06/08 23:16:09;;;;;;;10.73;7.90;;;;;19.50;100833.00;;;;10141748;28;20237;-77
2023/06/08 23:21:17;;;;;;;10.00;8.60;;;;;19.40;100833.00;;;;10142938;28;20214;-76
2023/06/08 23:26:23;;;;;;;11.05;7.90;;;;;19.40;100825.00;;;;10127786;28;20221;-79
2023/06/08 23:31:25;;;;;;;11.10;7.65;;;;;19.40;100823.00;;;;10142131;28;20217;-78
2023/06/08 23:36:28;;;;;;;9.07;7.60;;;;;19.40;100832.00;;;;10128289;28;20276;-78
2023/06/08 23:41:31;;;;;;;11.77;8.10;;;;;19.30;100831.00;;;;10142184;28;20225;-79
2023/06/08 23:46:38;;;;;;;12.88;8.13;;;;;19.10;100817.00;;;;10144267;28;20328;-78
2023/06/08 23:51:41;;;;;;;15.93;8.40;;;;;19.10;100831.00;;;;10145046;28;20704;-78
2023/06/08 23:56:43;;;;;;;14.00;8.00;;;;;19.00;100832.00;;;;10142088;28;21082;-78
